createdAt,value
2023-01-10T00:01:48.590Z,5.20
2023-01-10T00:04:16.567Z,5.20
2023-01-10T00:06:44.471Z,5.20
2023-01-10T00:09:12.531Z,5.20
2023-01-10T00:11:58.163Z,5.20
2023-01-10T00:14:29.927Z,5.10
2023-01-10T00:17:00.004Z,5.10
2023-01-10T00:19:28.472Z,5.10
2023-01-10T00:22:02.603Z,5.10
2023-01-10T00:24:30.833Z,5.10
2023-01-10T00:26:59.408Z,5.10
2023-01-10T00:29:31.215Z,5.10
2023-01-10T00:31:59.284Z,5.10
2023-01-10T00:34:27.198Z,5.10
2023-01-10T00:36:55.143Z,5.10
2023-01-10T00:39:27.036Z,5.10
2023-01-10T00:42:12.642Z,5.10
2023-01-10T00:44:41.841Z,5.10
2023-01-10T00:47:10.525Z,5.10
2023-01-10T00:49:38.520Z,5.10
2023-01-10T00:52:06.883Z,5.10
2023-01-10T00:54:34.816Z,5.20
2023-01-10T00:57:02.958Z,5.20
2023-01-10T00:59:31.092Z,5.20
2023-01-10T01:02:00.383Z,5.20
2023-01-10T01:04:28.355Z,5.20
2023-01-10T01:06:56.269Z,5.20
2023-01-10T01:09:24.263Z,5.20
2023-01-10T01:11:52.201Z,5.30
2023-01-10T01:14:20.159Z,5.30
2023-01-10T01:16:48.022Z,5.30
2023-01-10T01:19:17.377Z,5.30
2023-01-10T01:21:45.293Z,5.30
2023-01-10T01:24:13.250Z,5.30
2023-01-10T01:26:42.707Z,5.30
2023-01-10T01:29:11.033Z,5.40
2023-01-10T01:31:38.942Z,5.50
2023-01-10T01:34:07.268Z,5.50
2023-01-10T01:36:36.576Z,5.50
2023-01-10T01:39:06.170Z,5.50
2023-01-10T01:41:52.012Z,5.50
2023-01-10T01:44:21.111Z,5.50
2023-01-10T01:47:01.519Z,5.60
2023-01-10T01:49:32.249Z,5.60
2023-01-10T01:52:12.370Z,5.60
2023-01-10T01:54:40.653Z,5.50
2023-01-10T01:57:15.671Z,5.60
2023-01-10T01:59:48.041Z,5.60
2023-01-10T02:02:23.015Z,5.60
2023-01-10T02:04:57.433Z,5.50
2023-01-10T02:07:33.520Z,5.50
2023-01-10T02:10:10.323Z,5.50
2023-01-10T02:12:40.603Z,5.50
2023-01-10T02:15:11.765Z,5.50
2023-01-10T02:17:40.336Z,5.50
2023-01-10T02:20:13.690Z,5.60
2023-01-10T02:23:31.321Z,5.60
2023-01-10T02:26:47.410Z,5.60
2023-01-10T02:30:05.874Z,5.60
2023-01-10T02:33:04.041Z,5.70
2023-01-10T02:35:56.786Z,5.70
2023-01-10T02:38:37.471Z,5.70
2023-01-10T02:41:18.073Z,5.70
2023-01-10T02:43:54.893Z,5.60
2023-01-10T02:46:31.156Z,5.60
2023-01-10T02:49:00.563Z,5.60
2023-01-10T02:51:30.976Z,5.70
2023-01-10T02:54:04.673Z,5.60
2023-01-10T02:57:09.641Z,5.60
2023-01-10T03:00:18.048Z,5.60
2023-01-10T03:02:58.312Z,5.60
2023-01-10T03:05:50.035Z,5.70
2023-01-10T03:08:31.122Z,5.60
2023-01-10T03:11:02.678Z,5.70
2023-01-10T03:13:38.460Z,5.70
2023-01-10T03:16:13.636Z,5.70
2023-01-10T03:18:49.006Z,5.70
2023-01-10T03:21:21.282Z,5.80
2023-01-10T03:23:54.779Z,5.70
2023-01-10T03:26:38.352Z,5.70
2023-01-10T03:29:12.539Z,5.70
2023-01-10T03:31:49.828Z,5.70
2023-01-10T03:34:18.643Z,5.70
2023-01-10T03:36:58.580Z,5.70
2023-01-10T03:39:35.396Z,5.60
2023-01-10T03:42:11.864Z,5.70
2023-01-10T03:44:51.009Z,5.60
2023-01-10T03:47:30.780Z,5.70
2023-01-10T03:50:04.919Z,5.70
2023-01-10T03:52:37.122Z,5.70
2023-01-10T03:55:07.936Z,5.70
2023-01-10T03:57:35.904Z,5.80
2023-01-10T04:00:04.704Z,5.80
2023-01-10T04:02:33.845Z,5.80
2023-01-10T04:05:01.856Z,5.80
2023-01-10T04:07:29.735Z,5.90
2023-01-10T04:09:59.247Z,5.80
2023-01-10T04:12:27.589Z,5.90
2023-01-10T04:14:55.645Z,5.90
2023-01-10T04:17:23.780Z,5.80
2023-01-10T04:19:51.857Z,5.80
2023-01-10T04:22:19.912Z,5.80
2023-01-10T04:24:48.593Z,5.80
2023-01-10T04:27:18.173Z,5.80
2023-01-10T04:29:46.148Z,5.80
2023-01-10T04:32:14.278Z,5.80
2023-01-10T04:34:42.195Z,5.80
2023-01-10T04:37:10.089Z,5.90
2023-01-10T04:39:38.095Z,5.80
2023-01-10T04:42:06.062Z,5.80
2023-01-10T04:44:35.300Z,5.80
2023-01-10T04:47:05.041Z,5.80
2023-01-10T04:49:32.954Z,5.70
2023-01-10T04:52:00.986Z,5.70
2023-01-10T04:54:28.941Z,5.70
2023-01-10T04:56:56.829Z,5.80
2023-01-10T04:59:24.729Z,5.70
2023-01-10T05:01:54.049Z,5.70
2023-01-10T05:04:22.151Z,5.70
2023-01-10T05:06:50.132Z,5.70
2023-01-10T05:09:18.316Z,5.70
2023-01-10T05:11:46.307Z,5.60
2023-01-10T05:14:14.419Z,5.60
2023-01-10T05:16:42.385Z,5.60
2023-01-10T05:19:12.195Z,5.60
2023-01-10T05:21:40.197Z,5.60
2023-01-10T05:24:09.902Z,5.60
2023-01-10T05:26:37.972Z,5.60
2023-01-10T05:29:05.903Z,5.60
2023-01-10T05:31:34.846Z,5.60
2023-01-10T05:34:02.885Z,5.60
2023-01-10T05:36:32.155Z,5.50
2023-01-10T05:39:00.211Z,5.50
2023-01-10T05:41:28.113Z,5.50
2023-01-10T05:43:56.119Z,5.50
2023-01-10T05:46:24.019Z,5.40
2023-01-10T05:48:53.229Z,5.40
2023-01-10T05:51:21.151Z,5.40
2023-01-10T05:53:50.471Z,5.40
2023-01-10T05:56:18.505Z,5.40
2023-01-10T05:58:47.441Z,5.50
2023-01-10T06:01:18.331Z,5.50
2023-01-10T06:03:46.546Z,5.50
2023-01-10T06:06:14.532Z,5.50
2023-01-10T06:08:42.479Z,5.50
2023-01-10T06:11:11.763Z,5.50
2023-01-10T06:13:39.733Z,5.50
2023-01-10T06:16:08.468Z,5.50
2023-01-10T06:18:36.374Z,5.50
2023-01-10T06:21:04.555Z,5.50
2023-01-10T06:23:32.459Z,5.50
2023-01-10T06:26:00.657Z,5.50
2023-01-10T06:28:29.882Z,5.50
2023-01-10T06:30:58.099Z,5.50
2023-01-10T06:33:26.503Z,5.50
2023-01-10T06:35:54.442Z,5.50
2023-01-10T06:38:22.381Z,5.50
2023-01-10T06:40:50.278Z,5.40
2023-01-10T06:43:18.266Z,5.50
2023-01-10T06:45:47.521Z,5.40
2023-01-10T06:48:15.522Z,5.40
2023-01-10T06:50:43.460Z,5.40
2023-01-10T06:53:11.402Z,5.40
2023-01-10T06:55:39.351Z,5.40
2023-01-10T06:58:07.277Z,5.40
2023-01-10T07:00:35.158Z,5.50
2023-01-10T07:03:04.445Z,5.50
2023-01-10T07:05:34.696Z,5.60
2023-01-10T07:08:02.633Z,5.60
2023-01-10T07:10:30.538Z,5.50
2023-01-10T07:12:59.484Z,5.60
2023-01-10T07:15:30.136Z,5.60
2023-01-10T07:17:58.402Z,5.60
2023-01-10T07:20:28.942Z,5.60
2023-01-10T07:22:58.419Z,5.60
2023-01-10T07:25:29.206Z,5.60
2023-01-10T07:27:57.281Z,5.60
2023-01-10T07:30:26.365Z,5.60
2023-01-10T07:32:55.680Z,5.60
2023-01-10T07:35:24.107Z,5.60
2023-01-10T07:37:53.753Z,5.60
2023-01-10T07:40:21.677Z,5.60
2023-01-10T07:42:50.051Z,5.60
2023-01-10T07:45:18.122Z,5.50
2023-01-10T07:47:46.017Z,5.50
2023-01-10T07:50:13.953Z,5.50
2023-01-10T07:52:41.848Z,5.40
2023-01-10T07:55:11.320Z,5.40
2023-01-10T07:57:39.213Z,5.40
2023-01-10T08:00:09.161Z,5.40
2023-01-10T08:02:37.225Z,5.30
2023-01-10T08:05:06.079Z,5.30
2023-01-10T08:07:34.060Z,5.30
2023-01-10T08:10:01.973Z,5.30
2023-01-10T08:12:31.208Z,5.30
2023-01-10T08:14:59.504Z,5.40
2023-01-10T08:17:27.419Z,5.40
2023-01-10T08:19:55.318Z,5.40
2023-01-10T08:22:23.219Z,5.30
2023-01-10T08:24:51.090Z,5.30
2023-01-10T08:27:19.015Z,5.30
2023-01-10T08:29:48.231Z,5.30
2023-01-10T08:32:16.241Z,5.30
2023-01-10T08:34:44.165Z,5.30
2023-01-10T08:37:14.771Z,5.40
2023-01-10T08:39:42.711Z,5.40
2023-01-10T08:42:10.751Z,5.40
2023-01-10T08:44:38.689Z,5.50
2023-01-10T08:47:07.949Z,5.40
2023-01-10T08:49:35.870Z,5.40
2023-01-10T08:52:04.033Z,5.50
2023-01-10T08:54:33.032Z,5.50
2023-01-10T08:57:00.985Z,5.60
2023-01-10T08:59:28.960Z,5.60
2023-01-10T09:01:58.465Z,5.60
2023-01-10T09:04:32.674Z,5.60
2023-01-10T09:07:00.874Z,5.70
2023-01-10T09:09:28.739Z,5.70
2023-01-10T09:11:57.505Z,5.70
2023-01-10T09:14:25.483Z,5.80
2023-01-10T09:16:53.345Z,5.80
2023-01-10T09:19:21.229Z,5.90
2023-01-10T09:21:50.449Z,5.90
2023-01-10T09:24:18.317Z,6.00
2023-01-10T09:26:46.272Z,6.00
2023-01-10T09:29:16.190Z,6.00
2023-01-10T09:31:44.143Z,6.00
2023-01-10T09:34:12.080Z,6.00
2023-01-10T09:36:40.025Z,6.00
2023-01-10T09:39:09.320Z,6.00
2023-01-10T09:42:14.544Z,6.00
2023-01-10T09:44:55.264Z,6.10
2023-01-10T09:47:33.261Z,6.10
2023-01-10T09:50:16.572Z,6.10
2023-01-10T09:52:51.117Z,6.20
2023-01-10T09:55:27.830Z,6.10
2023-01-10T09:58:00.250Z,6.20
2023-01-10T10:00:41.743Z,6.20
2023-01-10T10:03:26.680Z,6.20
2023-01-10T10:06:03.781Z,6.20
2023-01-10T10:08:39.292Z,6.10
2023-01-10T10:11:37.520Z,6.20
2023-01-10T10:14:20.563Z,6.10
2023-01-10T10:17:07.029Z,6.20
2023-01-10T10:19:53.225Z,6.20
2023-01-10T10:22:35.503Z,6.20
2023-01-10T10:25:19.564Z,6.10
2023-01-10T10:28:10.521Z,6.20
2023-01-10T10:30:53.351Z,6.20
2023-01-10T10:33:48.928Z,6.20
2023-01-10T10:36:25.270Z,6.30
2023-01-10T10:38:58.235Z,6.20
2023-01-10T10:41:34.040Z,6.20
2023-01-10T10:44:27.704Z,6.20
2023-01-10T10:46:58.712Z,6.30
2023-01-10T10:49:42.558Z,6.30
2023-01-10T10:52:22.147Z,6.30
2023-01-10T10:54:51.782Z,6.40
2023-01-10T10:57:23.538Z,6.40
2023-01-10T10:59:53.398Z,6.30
2023-01-10T11:02:27.204Z,6.30
2023-01-10T11:04:59.409Z,6.30
2023-01-10T11:07:33.995Z,6.40
2023-01-10T11:10:16.928Z,6.40
2023-01-10T11:12:51.160Z,6.40
2023-01-10T11:15:43.476Z,6.40
2023-01-10T11:18:17.419Z,6.40
2023-01-10T11:20:52.699Z,6.40
2023-01-10T11:23:41.194Z,6.40
2023-01-10T11:26:23.063Z,6.50
2023-01-10T11:28:54.555Z,6.50
2023-01-10T11:31:30.633Z,6.50
2023-01-10T11:33:59.845Z,6.50
2023-01-10T11:36:27.820Z,6.50
2023-01-10T11:39:05.034Z,6.50
2023-01-10T11:41:34.411Z,6.50
2023-01-10T11:44:18.746Z,6.50
2023-01-10T11:46:50.070Z,6.50
2023-01-10T11:49:29.756Z,6.60
2023-01-10T11:52:04.126Z,6.60
2023-01-10T11:54:34.094Z,6.50
2023-01-10T11:57:07.658Z,6.60
2023-01-10T11:59:35.890Z,6.60
2023-01-10T12:02:13.982Z,6.60
2023-01-10T12:04:46.986Z,6.60
2023-01-10T12:07:15.060Z,6.60
2023-01-10T12:09:46.105Z,6.60
2023-01-10T12:12:23.351Z,6.60
2023-01-10T12:14:52.796Z,6.60
2023-01-10T12:17:27.204Z,6.60
2023-01-10T12:20:00.405Z,6.60
2023-01-10T12:22:34.771Z,6.60
2023-01-10T12:25:12.939Z,6.60
2023-01-10T12:27:42.745Z,6.60
2023-01-10T12:30:18.885Z,6.60
2023-01-10T12:32:52.954Z,6.60
2023-01-10T12:35:26.561Z,6.60
2023-01-10T12:38:06.461Z,6.70
2023-01-10T12:40:46.144Z,7.40
2023-01-10T12:43:40.263Z,8.60
2023-01-10T12:46:38.268Z,8.20
2023-01-10T12:49:22.401Z,7.90
2023-01-10T12:51:54.047Z,8.50
2023-01-10T12:54:24.832Z,8.10
2023-01-10T12:56:53.904Z,7.60
2023-01-10T12:59:37.130Z,7.30
2023-01-10T13:02:15.294Z,7.10
2023-01-10T13:04:49.833Z,7.00
2023-01-10T13:07:19.716Z,6.90
2023-01-10T13:09:49.845Z,6.80
2023-01-10T13:12:25.002Z,6.70
2023-01-10T13:15:06.937Z,6.70
2023-01-10T13:17:44.517Z,6.70
2023-01-10T13:20:42.064Z,6.80
2023-01-10T13:23:33.409Z,6.80
2023-01-10T13:26:08.918Z,6.90
2023-01-10T13:28:40.899Z,6.80
2023-01-10T13:31:26.707Z,6.70
2023-01-10T13:33:59.886Z,6.50
2023-01-10T13:36:36.437Z,6.40
2023-01-10T13:39:08.967Z,6.30
2023-01-10T13:42:29.887Z,6.40
2023-01-10T13:45:24.452Z,6.30
2023-01-10T13:48:28.713Z,6.30
2023-01-10T13:51:24.226Z,6.30
2023-01-10T13:53:59.816Z,6.50
2023-01-10T13:56:38.046Z,6.50
2023-01-10T13:59:31.781Z,6.40
2023-01-10T14:02:21.254Z,6.50
2023-01-10T14:04:54.912Z,6.50
2023-01-10T14:07:29.199Z,6.40
2023-01-10T14:10:05.980Z,6.30
2023-01-10T14:12:40.047Z,6.20
2023-01-10T14:15:24.516Z,6.10
2023-01-10T14:18:00.842Z,6.10
2023-01-10T14:20:31.855Z,6.10
2023-01-10T14:23:07.298Z,6.00
2023-01-10T14:25:39.162Z,6.00
2023-01-10T14:28:22.770Z,6.00
2023-01-10T14:31:03.640Z,6.20
2023-01-10T14:33:33.366Z,6.30
2023-01-10T14:36:08.249Z,6.30
2023-01-10T14:38:40.575Z,6.30
2023-01-10T14:41:21.699Z,6.30
2023-01-10T14:43:58.714Z,6.20
2023-01-10T14:46:39.423Z,6.10
2023-01-10T14:49:24.009Z,6.00
2023-01-10T14:51:52.822Z,5.80
2023-01-10T14:54:25.211Z,5.80
2023-01-10T14:56:54.922Z,5.90
2023-01-10T14:59:28.414Z,5.80
2023-01-10T15:01:59.437Z,5.80
2023-01-10T15:04:30.499Z,5.70
2023-01-10T15:07:02.699Z,5.70
2023-01-10T15:09:32.918Z,5.60
2023-01-10T15:12:06.175Z,5.60
2023-01-10T15:14:36.472Z,5.50
2023-01-10T15:17:09.380Z,5.50
2023-01-10T15:19:40.668Z,5.50
2023-01-10T15:22:26.330Z,5.40
2023-01-10T15:25:02.776Z,5.40
2023-01-10T15:27:34.098Z,5.40
2023-01-10T15:30:02.866Z,5.40
2023-01-10T15:32:38.257Z,5.50
2023-01-10T15:35:09.527Z,5.40
2023-01-10T15:37:42.383Z,5.40
2023-01-10T15:40:23.459Z,5.40
2023-01-10T15:42:53.460Z,5.40
2023-01-10T15:45:31.617Z,5.40
2023-01-10T15:48:04.007Z,5.40
2023-01-10T15:50:38.611Z,5.40
2023-01-10T15:53:10.166Z,5.40
2023-01-10T15:55:45.355Z,5.50
2023-01-10T15:58:28.197Z,5.40
2023-01-10T16:00:58.508Z,5.50
2023-01-10T16:03:32.535Z,5.50
2023-01-10T16:06:02.219Z,5.60
2023-01-10T16:08:35.263Z,5.50
2023-01-10T16:11:07.943Z,5.50
2023-01-10T16:13:37.433Z,5.50
2023-01-10T16:16:18.574Z,5.50
2023-01-10T16:18:46.525Z,5.40
2023-01-10T16:21:15.027Z,5.50
2023-01-10T16:23:46.007Z,5.50
2023-01-10T16:26:14.785Z,5.50
2023-01-10T16:28:45.122Z,5.50
2023-01-10T16:31:15.369Z,5.50
2023-01-10T16:33:45.411Z,5.50
2023-01-10T16:36:17.576Z,5.40
2023-01-10T16:38:46.220Z,5.40
2023-01-10T16:41:33.688Z,5.30
2023-01-10T16:44:03.473Z,5.30
2023-01-10T16:46:31.680Z,5.30
2023-01-10T16:49:00.399Z,5.30
2023-01-10T16:51:32.631Z,5.30
2023-01-10T16:54:01.274Z,5.40
2023-01-10T16:56:30.966Z,5.30
2023-01-10T16:58:59.673Z,5.30
2023-01-10T17:01:35.479Z,5.40
2023-01-10T17:04:06.320Z,5.30
2023-01-10T17:06:34.473Z,5.20
2023-01-10T17:09:02.839Z,5.20
2023-01-10T17:11:36.753Z,5.20
2023-01-10T17:14:05.897Z,5.20
2023-01-10T17:16:35.757Z,5.20
2023-01-10T17:19:03.936Z,5.20
2023-01-10T17:21:31.886Z,5.20
2023-01-10T17:23:59.866Z,5.30
2023-01-10T17:26:27.920Z,5.20
2023-01-10T17:28:56.530Z,5.20
2023-01-10T17:31:24.460Z,5.30
2023-01-10T17:33:53.767Z,5.20
2023-01-10T17:36:22.453Z,5.20
2023-01-10T17:38:50.382Z,5.20
2023-01-10T17:41:18.274Z,5.20
2023-01-10T17:43:46.288Z,5.10
2023-01-10T17:46:16.474Z,5.10
2023-01-10T17:48:44.446Z,5.00
2023-01-10T17:51:13.741Z,5.00
2023-01-10T17:53:41.894Z,4.90
2023-01-10T17:56:10.108Z,4.90
2023-01-10T17:58:38.095Z,4.90
2023-01-10T18:01:06.322Z,4.90
2023-01-10T18:03:34.603Z,4.90
2023-01-10T18:06:02.884Z,4.90
2023-01-10T18:08:33.355Z,4.90
2023-01-10T18:11:02.241Z,4.90
2023-01-10T18:13:31.613Z,4.90
2023-01-10T18:16:01.667Z,4.90
2023-01-10T18:18:30.999Z,4.80
2023-01-10T18:21:02.169Z,4.80
2023-01-10T18:23:32.083Z,4.70
2023-01-10T18:26:04.543Z,4.70
2023-01-10T18:28:41.786Z,4.70
2023-01-10T18:31:13.103Z,4.70
2023-01-10T18:33:41.592Z,4.60
2023-01-10T18:36:15.211Z,4.60
2023-01-10T18:38:44.473Z,4.60
2023-01-10T18:41:13.986Z,4.60
2023-01-10T18:43:42.246Z,4.60
2023-01-10T18:46:14.579Z,4.60
2023-01-10T18:48:42.560Z,4.60
2023-01-10T18:51:14.043Z,4.60
2023-01-10T18:53:43.510Z,4.60
2023-01-10T18:56:14.694Z,4.60
2023-01-10T18:58:44.076Z,4.50
2023-01-10T19:01:14.826Z,4.50
2023-01-10T19:03:43.790Z,4.40
2023-01-10T19:06:16.430Z,4.50
2023-01-10T19:08:45.656Z,4.50
2023-01-10T19:11:16.977Z,4.50
2023-01-10T19:13:46.247Z,4.50
2023-01-10T19:16:17.605Z,4.50
2023-01-10T19:18:50.515Z,4.50
2023-01-10T19:21:18.701Z,4.50
2023-01-10T19:23:50.032Z,4.50
2023-01-10T19:26:20.597Z,4.50
2023-01-10T19:28:49.510Z,4.50
2023-01-10T19:31:18.628Z,4.40
2023-01-10T19:33:48.118Z,4.40
2023-01-10T19:36:22.194Z,4.40
2023-01-10T19:38:54.638Z,4.40
2023-01-10T19:41:27.857Z,4.40
2023-01-10T19:43:58.020Z,4.40
2023-01-10T19:46:26.904Z,4.40
2023-01-10T19:48:57.159Z,4.40
2023-01-10T19:51:25.742Z,4.50
2023-01-10T19:53:54.591Z,4.40
2023-01-10T19:56:23.828Z,4.40
2023-01-10T19:58:52.503Z,4.50
2023-01-10T20:01:24.035Z,4.40
2023-01-10T20:03:52.957Z,4.50
2023-01-10T20:06:24.560Z,4.40
2023-01-10T20:08:54.834Z,4.40
2023-01-10T20:11:26.523Z,4.40
2023-01-10T20:13:54.903Z,4.50
2023-01-10T20:16:24.644Z,4.50
2023-01-10T20:18:53.319Z,4.50
2023-01-10T20:21:21.551Z,4.50
2023-01-10T20:23:49.556Z,4.50
2023-01-10T20:26:20.555Z,4.50
2023-01-10T20:28:51.317Z,4.40
2023-01-10T20:31:24.030Z,4.40
2023-01-10T20:33:52.418Z,4.40
2023-01-10T20:36:24.036Z,4.40
2023-01-10T20:38:52.826Z,4.40
2023-01-10T20:41:23.832Z,4.40
2023-01-10T20:43:54.360Z,4.40
2023-01-10T20:46:26.274Z,4.40
2023-01-10T20:48:56.440Z,4.40
2023-01-10T20:51:29.086Z,4.40
2023-01-10T20:53:57.570Z,4.40
2023-01-10T20:56:28.684Z,4.40
2023-01-10T20:58:58.980Z,4.40
2023-01-10T21:01:34.572Z,4.30
2023-01-10T21:04:07.968Z,4.30
2023-01-10T21:06:37.158Z,4.40
2023-01-10T21:09:06.291Z,4.40
2023-01-10T21:11:47.547Z,4.40
2023-01-10T21:14:21.401Z,4.40
2023-01-10T21:16:50.446Z,4.40
2023-01-10T21:19:21.264Z,4.40
2023-01-10T21:21:49.281Z,4.40
2023-01-10T21:24:17.222Z,4.40
2023-01-10T21:26:45.097Z,4.30
2023-01-10T21:29:13.434Z,4.40
2023-01-10T21:31:42.833Z,4.30
2023-01-10T21:34:10.816Z,4.40
2023-01-10T21:36:38.893Z,4.40
2023-01-10T21:39:06.869Z,4.40
2023-01-10T21:41:52.497Z,4.40
2023-01-10T21:44:21.443Z,4.50
2023-01-10T21:46:51.116Z,4.50
2023-01-10T21:49:19.334Z,4.50
2023-01-10T21:51:47.218Z,4.50
2023-01-10T21:54:15.177Z,4.60
2023-01-10T21:56:43.102Z,4.60
2023-01-10T21:59:11.169Z,4.60
2023-01-10T22:01:39.100Z,4.60
2023-01-10T22:04:08.382Z,4.60
2023-01-10T22:06:36.336Z,4.60
2023-01-10T22:09:04.599Z,4.60
2023-01-10T22:11:32.500Z,4.60
2023-01-10T22:14:00.498Z,4.60
2023-01-10T22:16:28.461Z,4.60
2023-01-10T22:18:56.432Z,4.60
2023-01-10T22:21:25.744Z,4.60
2023-01-10T22:23:53.684Z,4.50
2023-01-10T22:26:21.668Z,4.50
2023-01-10T22:28:49.673Z,4.50
2023-01-10T22:31:17.653Z,4.50
2023-01-10T22:33:45.684Z,4.50
2023-01-10T22:36:17.214Z,4.50
2023-01-10T22:38:49.198Z,4.50
2023-01-10T22:41:20.334Z,4.50
2023-01-10T22:43:48.830Z,4.50
2023-01-10T22:46:16.749Z,4.40
2023-01-10T22:48:45.337Z,4.40
2023-01-10T22:51:13.962Z,4.40
2023-01-10T22:53:42.465Z,4.40
2023-01-10T22:56:12.680Z,4.30
2023-01-10T22:58:42.290Z,4.30
2023-01-10T23:01:10.500Z,4.30
2023-01-10T23:03:38.572Z,4.40
2023-01-10T23:06:07.008Z,4.40
2023-01-10T23:08:35.976Z,4.30
2023-01-10T23:11:07.470Z,4.30
2023-01-10T23:13:37.554Z,4.30
2023-01-10T23:16:09.054Z,4.30
2023-01-10T23:18:36.954Z,4.30
2023-01-10T23:21:05.448Z,4.30
2023-01-10T23:23:33.597Z,4.30
2023-01-10T23:26:02.512Z,4.30
2023-01-10T23:28:32.399Z,4.30
2023-01-10T23:31:02.240Z,4.30
2023-01-10T23:33:30.618Z,4.30
2023-01-10T23:35:58.822Z,4.40
2023-01-10T23:38:27.449Z,4.40
2023-01-10T23:40:55.914Z,4.40
2023-01-10T23:43:24.617Z,4.40
2023-01-10T23:45:53.224Z,4.40
2023-01-10T23:48:22.628Z,4.40
2023-01-10T23:50:52.235Z,4.40
2023-01-10T23:53:20.899Z,4.40
2023-01-10T23:55:48.787Z,4.40
2023-01-10T23:58:17.170Z,4.50
